Derby, Australia
Current Conditions -  °F | °C
As of 6:41 AM on Thursday 23 Oct 2014 (Local Time) from YCIN Reporting Station
Broken Clouds Broken Clouds  
Wind Chill: 81°   Ceiling: 1100
Heat Index: 86°   Visibility: NA
Dew Point: 75°   Wind: 6mph
Humidity: 84%   Direction: 310°NW
Pressure: 29.88"   Gusts: NA
Location:  17.37°S, 123.67°E
Report Text: YCIN 222241Z AUTO 31005KT //// // BKN011 27/24 Q1012
Loading
Personal Weather Stations






























Interactive Weather Map
Tropical Storm Tracking
New forecast layout! Learn more

10-Day Weather Forecast

Advertisements
Track Severe Weather on mobile